Aérodrome :
LOGIN :

S'inscrire | Disclaimer

   EN    FR    IT 

 










Légende :    VFR   VFR Marginal   IFR   IFR Intensif   IFR Très Intensif
Visi : 
Plafond : 
>= 8 km
>= 3000ft
5 à 8 km
1000 à 3000 ft
1500m à 5 km
500 à 1000 ft
800 à 1500m
200 à 500 ft
< 800m
< 200 ft
Symboles :   Orages  Brouillard  Fortes neiges  Fortes précipitations  Vent > 20 kt
SIGMETs :   Divers  Orages  Givrage  Turbulence  Onde Orograph.  Cendres Volcan.







- Altitude de l'aérodrome : 1106 ft
- Voir les cartes d'approche


LFSO - Nancy / Ochey

DERNIER METAR :
  • 152200Z AUTO 15010KT 2000 SN BR BKN017/// OVC024/// ///TCU M01/M02 Q1015

METARs EXPIRÉS :
  • 152130Z AUTO 15008KT 2800 -SN BR BKN018 OVC023 M01/M03 Q1015
  • 152100Z AUTO 15007KT 3200 -SN BR BKN024 BKN035 OVC043 M01/M03 Q1016
  • 152030Z AUTO 15008KT CAVOK M01/M04 Q1016
  • 152000Z AUTO 12004KT 090V150 CAVOK M01/M05 Q1016
  • 151930Z AUTO 11005KT 080V140 CAVOK M01/M05 Q1017

TAF TAF LFSO
Valide du 15 à 15h jusqu'au 16 à 15h UTC


151400Z 1515/1615 11005KT CAVOK
BECMG 1521/1523 BKN008
TEMPO 1522/1603 2000 SNRA BKN004
TEMPO 1603/1615 3000 DZ BKN003
Pas de NOTAMs connus pour ce terrain.
1 SIGMET publié pour la FIR Reims (LFEE) :
 
Givrage fort avec pluie surfondue
LFEE SIGMET 1 VALID 152000/160000 LFPW
LFEE REIMS FIR/UIR SEV ICE (FZRA) FCST W OF LINE N4630 E00530 - N4930 E00600 SFC/FL020 MOV E 15KT NC=



MET'MAP, la Météo Aéronautique d'un coup d'oeil ! - Copyright ORBIFLY Décembre 2007 - Disclaimer

ORBIFLY MET'MAP TEAM :

Programmation & Développement : Alexandra Zaïnal
Conception & Développement : Baudouin d'Aumeries
Co-Programmation & Développement : Marc-Olivier Méhu
Soutien technique & logistique : Manuel Goepfert

Contact : metmap@orbifly.com




SOURCES & CREDITS :

   NOAA